الصفحة الرئيسية
METAR-TAF:

METAR-TAF

مطار :

هوبز, نيومكسيكو, الولايات المتحدة

دائرة عرض: 32-41N, خط طول: 103-13W, ارتفاع: 1115 متر

مراقبة الطقس الحالي

تاريخ ووقت الإصدار 20 دقيقة قبل الساعة 11:35UTC
ريح 18 عقدة من الشمال
درجة الحرارة 8°درجة مئوية
الرطوبة 49%
ضغط 1018 hPa
الرؤية: 16.1 كم
سماء صافية

METAR: KHOB 171135Z AUTO 36018KT 10SM CLR 08/M02 A3006 RMK AO2

زمن: 04:55 (11:55 UTC)

توقعات

تاريخ ووقت الإصدار 33 دقيقة قبل الساعة 11:22UTC
التوقعات صالحة من17 الساعة 12 UTC إلى 18 الساعة 12 UTC
ريح 18 عقدة من الشمال تتزايد حتى 26 عقدة
الرؤية: 10 كم
سماء صافية
من 17 الساعة 2000 UTC
ريح 8 عقدة من الشمال
الرؤية: 10 كم
سماء صافية
من 18 الساعة 0000 UTC
ريح 7 عقدة من الجنوب/الجنوب الشرقي
الرؤية: 10 كم
سماء صافية

TAF: KHOB 171122Z 1712/1812 35018G26KT P6SM SKC FM172000 01008KT P6SM SKC FM180000 15007KT P6SM SKC

أرصاد الطقس والتوقعات من أكثر من 4000 مطار (تقارير الطقس للمطار METAR والتنبؤ بالطقس بالمطارTAF).

المحطات المتاحة هي النقط الصفراء والحمراء على الخريطة.

حرك المؤشر فوق النقطة لمعرفة اسم المحطة.

ثم انقر لمعرفة أرصاد وتوقعات الطقس.

لتغيير الخارطة: اضغط على الأزرار الخضراء مع رمز الصليب الأسود للتكبير. على الزر الأخضر مع شرطة للتصغير، أو على الأسهم الخضراء للخرائط المجاورة.


METAR-TAF: